Time;durP1;ratioP1;P1;durP2;ratioP2;P2;SDS_P1;SDS_P2;PMS_P1;PMS_P2;Temp;Humidity;BMP_temperature;BMP_pressure;BME280_temperature;BME280_humidity;BME280_pressure;Samples;Min_cycle;Max_cycle;Signal;HPM_P1;HPM_P2
2022/06/08 13:43:50;;;;;;;4.22;1.20;;;23.90;38.00;;;20.82;43.82;94954.53;5088510;27;20348;-53
2022/06/08 13:46:27;;;;;;;4.43;1.52;;;23.40;38.90;;;20.74;44.09;94961.66;5084620;28;20055;-53
2022/06/08 13:49:01;;;;;;;3.42;1.52;;;23.80;38.80;;;20.60;45.10;94966.69;5068268;28;20025;-52
2022/06/08 13:51:27;;;;;;;5.38;1.40;;;24.10;38.50;;;20.39;47.04;94966.03;5064688;28;20488;-54
2022/06/08 13:53:54;;;;;;;5.45;1.65;;;24.40;38.40;;;20.11;49.67;94983.75;5049366;28;20025;-56
2022/06/08 13:56:23;;;;;;;6.43;1.38;;;24.40;39.10;;;19.88;50.45;94990.75;5048232;28;20029;-51
2022/06/08 13:58:52;;;;;;;4.32;1.25;;;24.40;39.50;;;19.77;53.57;94998.50;5048126;28;20033;-53
2022/06/08 14:01:30;;;;;;;5.07;1.65;;;24.30;40.50;;;19.62;54.00;94985.66;5049082;28;20044;-54
2022/06/08 14:03:57;;;;;;;5.15;1.67;;;24.10;41.30;;;19.33;58.41;94997.41;5048650;28;20025;-52
2022/06/08 14:14:53;;;;;;;5.80;1.75;;;22.70;46.20;;;17.73;67.56;95015.31;5056940;28;20501;-57
2022/06/08 14:17:21;;;;;;;5.25;1.95;;;22.30;47.80;;;17.47;69.64;95020.03;5052592;28;20041;-57
2022/06/08 14:19:54;;;;;;;5.00;2.00;;;22.00;49.20;;;17.30;69.73;95023.56;5055856;28;20033;-56
2022/06/08 14:22:31;;;;;;;5.18;2.15;;;21.60;50.40;;;17.04;71.72;95028.97;5070669;28;20025;-58
2022/06/08 14:25:03;;;;;;;5.10;2.28;;;21.30;51.20;;;16.69;72.92;95026.28;5053276;28;20029;-56
2022/06/08 14:27:36;;;;;;;7.30;2.50;;;21.00;52.20;;;16.68;74.44;95024.72;5059304;28;20025;-59
2022/06/08 14:30:13;;;;;;;4.05;2.15;;;20.70;52.90;;;16.52;75.04;95037.84;5051909;28;20029;-54
2022/06/08 14:32:42;;;;;;;9.32;2.30;;;20.50;54.30;;;16.40;76.17;95048.41;5055012;28;20041;-53
2022/06/08 14:35:20;;;;;;;6.22;2.35;;;20.30;54.60;;;16.19;77.48;95043.63;5054202;28;20038;-55
2022/06/08 14:37:53;;;;;;;4.40;2.33;;;20.20;55.40;;;16.18;78.53;95052.00;5054296;28;20032;-58
2022/06/08 14:40:22;;;;;;;;;;;20.00;56.00;;;16.03;78.11;95047.84;5048718;28;20033;-58
2022/06/08 14:42:48;;;;;;;7.15;2.70;;;19.90;55.50;;;15.92;78.53;95055.41;5052119;28;20226;-57
2022/06/08 14:45:35;;;;;;;7.38;2.60;;;19.80;56.30;;;15.84;78.14;95052.69;5054276;28;20044;-58
2022/06/08 14:48:14;;;;;;;10.30;2.35;;;19.70;57.30;;;15.81;79.74;95056.78;5047423;28;20033;-56
2022/06/08 14:50:44;;;;;;;6.22;2.20;;;19.60;57.60;;;15.82;80.12;95049.50;5049964;28;20058;-55
2022/06/08 14:53:12;;;;;;;5.72;2.30;;;19.50;57.90;;;15.74;79.17;95048.38;5046050;28;20025;-55
2022/06/08 14:58:24;;;;;;;6.07;1.88;;;19.30;58.50;;;15.57;78.59;95051.72;5044640;28;20032;-54
2022/06/08 15:00:49;;;;;;;3.97;1.60;;;19.30;58.50;;;15.49;78.38;95055.19;5041155;28;20025;-56
2022/06/08 15:03:22;;;;;;;4.78;2.15;;;19.20;58.70;;;15.34;77.63;95047.53;5041053;28;20392;-58
2022/06/08 15:05:53;;;;;;;5.45;1.58;;;19.20;58.90;;;15.37;78.22;95052.28;5039016;28;20025;-58
2022/06/08 15:08:20;;;;;;;6.47;2.08;;;19.20;58.80;;;15.42;78.40;95052.94;5030212;28;20113;-55
2022/06/08 15:13:19;;;;;;;7.15;2.33;;;19.30;58.90;;;15.45;78.29;95051.53;5031621;28;20046;-50
2022/06/08 15:15:46;;;;;;;6.82;2.50;;;19.40;58.70;;;15.60;80.04;95050.34;5016173;28;20036;-46
2022/06/08 15:18:14;;;;;;;5.35;1.92;;;19.50;59.00;;;15.59;77.69;95049.53;5034981;28;20036;-49
2022/06/08 15:20:40;;;;;;;5.72;2.28;;;19.60;59.10;;;15.68;78.64;95042.34;5034637;28;20022;-47
2022/06/08 15:23:08;;;;;;;7.10;3.33;;;19.60;59.00;;;15.67;79.61;95040.78;5034213;28;20033;-47
2022/06/08 15:25:40;;;;;;;5.55;1.70;;;19.70;59.10;;;15.64;79.20;95032.53;5016643;28;20021;-47
2022/06/08 15:28:18;;;;;;;3.72;1.85;;;19.80;59.20;;;15.71;76.71;95040.94;5024666;28;20017;-47
2022/06/08 15:30:45;;;;;;;4.57;2.25;;;19.90;58.80;;;15.76;79.55;95032.75;5054232;28;20041;-53
2022/06/08 15:33:18;;;;;;;4.38;1.63;;;19.90;59.00;;;15.83;79.60;95033.09;5036520;28;20116;-52
2022/06/08 15:36:07;;;;;;;4.10;1.65;;;20.00;59.30;;;15.95;79.76;95033.31;5036668;28;20488;-49
2022/06/08 15:38:43;;;;;;;5.70;2.03;;;20.10;59.20;;;15.87;79.60;95035.94;5036469;28;20083;-51
2022/06/08 15:41:10;;;;;;;6.53;2.63;;;20.20;58.90;;;15.94;79.62;95029.00;5036551;28;20116;-52
2022/06/08 15:43:37;;;;;;;4.45;2.20;;;20.30;59.00;;;16.09;79.97;95027.00;5053819;28;20040;-50
2022/06/08 15:46:03;;;;;;;3.97;2.20;;;20.40;59.00;;;16.10;80.38;95021.31;5053943;28;20037;-51
2022/06/08 15:48:30;;;;;;;6.80;2.30;;;20.60;59.10;;;16.17;80.56;95024.34;5036090;28;20372;-48
2022/06/08 15:51:00;;;;;;;5.10;1.80;;;20.60;59.20;;;16.20;79.77;95020.22;5032296;28;20039;-54
2022/06/08 15:53:49;;;;;;;4.90;2.10;;;20.60;59.20;;;16.25;78.89;95017.41;5037058;28;20036;-49
2022/06/08 15:56:27;;;;;;;6.82;2.00;;;20.70;59.20;;;16.27;79.16;95017.88;5032145;28;20403;-50
2022/06/08 15:58:58;;;;;;;4.75;2.00;;;20.70;59.20;;;16.29;78.15;95012.97;5024467;28;20147;-48
2022/06/08 16:01:26;;;;;;;9.90;2.42;;;20.70;59.10;;;16.35;78.70;95010.94;5020155;28;20025;-49
2022/06/08 16:03:55;;;;;;;4.35;2.25;;;20.70;59.00;;;16.42;78.43;95012.06;5025588;28;20032;-48
2022/06/08 16:06:21;;;;;;;5.50;2.33;;;20.80;58.90;;;16.47;78.64;95021.06;5032567;28;20033;-50
2022/06/08 16:08:46;;;;;;;5.25;1.90;;;20.90;58.90;;;16.37;76.79;95020.25;5014221;28;20036;-48
2022/06/08 16:11:12;;;;;;;5.20;1.70;;;20.90;58.70;;;16.34;78.60;95017.41;5032254;28;20029;-48
2022/06/08 16:13:41;;;;;;;4.05;2.10;;;20.90;58.80;;;16.36;77.85;95021.38;5031039;28;20029;-47
2022/06/08 16:16:07;;;;;;;4.50;1.77;;;20.90;58.90;;;16.37;78.42;95022.94;5034327;28;20116;-48
2022/06/08 16:18:39;;;;;;;5.88;2.03;;;20.80;59.40;;;16.39;77.79;95020.75;5052265;28;20119;-49
2022/06/08 16:21:05;;;;;;;3.58;1.60;;;20.80;59.00;;;16.40;76.23;95018.84;5052875;28;20083;-49
2022/06/08 16:23:39;;;;;;;4.57;1.80;;;20.80;58.60;;;16.29;76.44;95010.28;5050755;28;20032;-50
2022/06/08 16:26:08;;;;;;;4.03;1.85;;;20.80;58.70;;;16.29;76.65;95014.88;5011592;28;20108;-48
2022/06/08 16:28:34;;;;;;;5.20;1.70;;;20.80;58.80;;;16.31;76.44;95016.13;5047232;28;20518;-52
2022/06/08 16:31:01;;;;;;;6.07;2.00;;;20.70;58.70;;;16.23;77.44;94997.31;5035540;28;20021;-52
2022/06/08 16:33:27;;;;;;;3.28;2.00;;;20.70;58.80;;;16.26;76.54;95002.84;5012374;28;20021;-51
2022/06/08 16:35:53;;;;;;;4.50;1.92;;;20.70;58.70;;;16.27;77.10;95001.75;5023807;28;20025;-46
2022/06/08 16:38:20;;;;;;;2.90;1.67;;;20.70;58.70;;;16.15;77.05;95005.06;5030927;28;20480;-48
2022/06/08 16:40:47;;;;;;;2.35;1.67;;;20.70;58.80;;;16.18;76.49;95004.44;5049797;28;20479;-48
2022/06/08 16:43:14;;;;;;;2.50;1.67;;;20.70;58.60;;;16.19;77.37;95003.31;5018394;28;20033;-47
2022/06/08 16:45:43;;;;;;;5.35;1.98;;;20.70;58.80;;;16.28;78.52;95011.41;5038914;28;20052;-48
2022/06/08 16:48:13;;;;;;;6.30;1.60;;;20.60;59.00;;;16.31;77.56;95010.75;5047833;28;20100;-49
2022/06/08 16:50:44;;;;;;;4.60;2.17;;;20.60;59.10;;;16.30;78.34;95016.47;5025348;28;20395;-49
2022/06/08 16:53:11;;;;;;;7.00;2.08;;;20.60;59.40;;;16.33;77.79;95015.84;5038027;28;20036;-47
2022/06/08 16:55:37;;;;;;;6.85;2.38;;;20.70;59.20;;;16.35;79.09;95019.78;5050554;28;20058;-52
2022/06/08 17:00:51;;;;;;;6.28;2.17;;;21.00;58.80;;;16.52;79.01;95019.03;5031610;28;20060;-48
2022/06/08 17:03:17;;;;;;;3.75;1.90;;;21.20;58.70;;;16.67;78.35;95020.41;5025033;28;20029;-46
2022/06/08 17:05:44;;;;;;;3.85;1.60;;;21.40;58.70;;;16.63;75.24;95006.81;5030904;28;20109;-51
2022/06/08 17:08:12;;;;;;;3.88;1.88;;;21.50;58.10;;;16.71;73.98;95007.16;5039089;28;20084;-49
2022/06/08 17:11:36;;;;;;;5.63;2.80;;;21.70;57.50;;;16.78;73.24;95000.22;5033905;28;20032;-49
2022/06/08 17:13:26;;;;;;;6.55;3.92;;;21.70;57.30;;;16.74;73.64;94993.88;5038597;28;20411;-47
2022/06/08 17:15:56;;;;;;;5.70;2.85;;;21.70;57.10;;;16.65;73.41;95001.94;5028314;28;20552;-49
2022/06/08 17:18:26;;;;;;;5.60;2.38;;;21.70;56.90;;;16.77;73.65;95008.63;5039429;28;20029;-52
2022/06/08 17:20:53;;;;;;;6.15;2.17;;;21.60;56.80;;;16.76;73.36;95004.31;5051226;28;20139;-51
2022/06/08 17:23:19;;;;;;;4.82;3.25;;;21.60;56.80;;;16.84;75.75;95003.53;5051385;28;20025;-51
2022/06/08 17:25:44;;;;;;;5.53;2.63;;;21.50;57.80;;;16.79;74.60;95001.00;5033353;28;20024;-49
2022/06/08 17:28:11;;;;;;;3.25;1.50;;;21.50;57.20;;;16.83;74.10;95010.81;5033644;28;20083;-50
2022/06/08 17:30:36;;;;;;;2.58;1.73;;;21.50;57.20;;;16.73;73.64;95003.03;4969804;28;20037;-47
2022/06/08 17:33:03;;;;;;;5.40;1.73;;;21.50;57.00;;;16.65;73.70;95020.75;4980344;28;20033;-50
2022/06/08 17:35:29;;;;;;;7.82;1.90;;;21.50;56.80;;;16.45;73.91;95016.00;5013541;28;20079;-49
2022/06/08 17:38:00;;;;;;;4.50;1.88;;;21.50;56.80;;;16.46;73.70;95012.22;5031471;28;20029;-49
2022/06/08 17:40:26;;;;;;;3.22;1.77;;;21.50;56.80;;;16.39;74.17;95015.38;5013782;28;20133;-49
2022/06/08 17:42:52;;;;;;;4.40;1.92;;;21.50;56.60;;;16.57;74.09;95012.69;5031141;28;20121;-53
2022/06/08 17:45:20;;;;;;;5.35;2.00;;;21.50;56.60;;;16.57;73.67;95018.06;5019910;28;20049;-47
2022/06/08 17:47:45;;;;;;;4.38;1.95;;;21.50;56.60;;;16.57;73.27;95012.69;5011187;28;20060;-47
2022/06/08 17:50:16;;;;;;;7.85;2.30;;;21.40;56.70;;;16.67;73.33;95017.72;5010627;28;20073;-47
2022/06/08 17:52:42;;;;;;;4.20;1.98;;;21.30;56.90;;;16.74;73.18;95015.38;5010897;28;20044;-46
2022/06/08 17:55:09;;;;;;;4.80;1.83;;;21.30;57.10;;;16.66;71.96;95016.16;5010863;28;20065;-47
2022/06/08 17:57:36;;;;;;;3.90;2.08;;;21.20;57.00;;;16.83;72.21;95024.28;5009617;28;20037;-48
2022/06/08 18:00:09;;;;;;;6.88;2.30;;;21.30;57.00;;;16.85;71.88;95026.63;5006382;28;20038;-51
2022/06/08 18:02:36;;;;;;;6.65;1.85;;;21.40;56.80;;;16.83;71.86;95012.72;5010274;28;20034;-48
2022/06/08 18:05:03;;;;;;;8.43;2.10;;;21.30;56.80;;;16.95;72.24;95026.28;4994391;28;20531;-46
2022/06/08 18:07:33;;;;;;;3.70;1.83;;;21.30;57.00;;;16.92;71.42;95008.09;5018406;28;20060;-49
2022/06/08 18:09:59;;;;;;;3.33;1.65;;;21.20;57.20;;;16.98;72.12;95020.28;4994703;28;20030;-49
2022/06/08 18:12:25;;;;;;;5.40;1.92;;;21.10;57.20;;;16.92;72.04;95023.44;5024568;28;20053;-47
2022/06/08 18:14:53;;;;;;;4.10;1.77;;;21.00;57.30;;;16.89;72.00;95024.88;5025881;28;20515;-53
2022/06/08 18:17:24;;;;;;;4.90;2.58;;;20.90;57.40;;;16.81;72.64;95033.75;5008885;28;20033;-48
2022/06/08 18:19:51;;;;;;;5.20;1.67;;;20.90;58.00;;;16.78;72.21;95026.31;5026452;28;20488;-50
2022/06/08 18:22:22;;;;;;;4.50;2.00;;;20.80;57.80;;;16.70;72.24;95029.75;5004216;28;20558;-48
2022/06/08 18:24:48;;;;;;;4.15;1.83;;;20.70;57.90;;;16.58;72.42;95022.34;5009947;28;20045;-51
2022/06/08 18:27:35;;;;;;;4.15;2.03;;;20.60;58.00;;;16.43;72.15;95019.00;5015167;28;20496;-48
2022/06/08 18:30:01;;;;;;;3.13;1.83;;;20.50;58.00;;;16.42;72.31;95019.31;5009482;28;20120;-48
2022/06/08 18:32:29;;;;;;;4.38;1.52;;;20.40;58.00;;;16.43;71.95;95019.00;4996011;28;20124;-49
2022/06/08 18:34:56;;;;;;;4.65;1.75;;;20.40;58.20;;;16.34;72.33;95015.50;4979916;28;20037;-49
2022/06/08 18:37:23;;;;;;;5.68;1.90;;;20.40;58.20;;;16.30;72.56;95017.25;5014096;28;20502;-50
2022/06/08 18:39:50;;;;;;;5.43;1.50;;;20.40;58.20;;;16.25;71.68;95020.09;4980270;28;20033;-48
2022/06/08 18:42:25;;;;;;;2.38;1.30;;;20.30;58.10;;;16.15;70.66;95018.47;4995791;28;20026;-50
2022/06/08 18:44:51;;;;;;;4.50;1.35;;;20.30;58.00;;;16.16;71.65;95013.91;4996993;28;20026;-48
2022/06/08 18:47:21;;;;;;;3.15;1.10;;;20.10;57.90;;;16.11;72.16;95011.38;5017590;28;20028;-48
2022/06/08 18:49:50;;;;;;;2.38;1.25;;;20.00;58.30;;;15.97;71.90;95022.22;4979568;28;20038;-48
2022/06/08 18:52:19;;;;;;;2.35;1.20;;;19.90;58.30;;;15.80;71.85;95022.97;5013235;28;20026;-48
2022/06/08 18:54:52;;;;;;;3.13;1.05;;;19.80;58.50;;;15.79;72.32;95026.75;4979784;28;20408;-48
2022/06/08 18:57:25;;;;;;;5.72;1.30;;;19.70;58.70;;;15.79;72.66;95031.34;4996418;28;20040;-48
2022/06/08 18:59:51;;;;;;;4.45;1.52;;;19.60;58.80;;;15.72;72.71;95027.19;5013911;28;20172;-50
2022/06/08 19:02:17;;;;;;;7.15;1.92;;;19.40;58.90;;;15.67;72.93;95034.63;4998980;28;20041;-48
2022/06/08 19:04:44;;;;;;;2.88;1.38;;;19.30;59.10;;;15.60;73.43;95029.66;5032988;28;20483;-49
2022/06/08 19:07:10;;;;;;;2.28;1.33;;;19.30;59.30;;;15.59;73.39;95035.34;5033019;28;20324;-48
2022/06/08 19:09:35;;;;;;;3.92;1.60;;;19.20;59.40;;;15.50;74.05;95037.97;5015205;28;20029;-51
2022/06/08 19:12:01;;;;;;;3.33;1.75;;;19.10;59.60;;;15.48;74.16;95046.34;5009173;28;20563;-50
2022/06/08 19:14:27;;;;;;;3.88;1.58;;;19.10;59.80;;;15.44;74.15;95044.56;5012490;28;20076;-48
2022/06/08 19:16:54;;;;;;;3.58;1.52;;;19.00;59.90;;;15.43;74.38;95051.06;4999061;28;20058;-48
2022/06/08 19:22:05;;;;;;;4.63;1.60;;;18.90;60.20;;;15.42;74.42;95052.94;4993537;28;20092;-48
2022/06/08 19:24:31;;;;;;;3.78;1.70;;;18.90;60.30;;;15.40;74.36;95057.81;4993074;28;20546;-50
2022/06/08 19:26:57;;;;;;;4.78;1.48;;;18.90;60.60;;;15.38;74.69;95057.31;4995946;28;20517;-53
2022/06/08 19:29:22;;;;;;;1.80;1.45;;;18.90;60.80;;;15.42;74.65;95066.38;5002888;28;20104;-50
2022/06/08 19:31:48;;;;;;;3.15;1.35;;;18.90;60.80;;;15.46;74.73;95061.16;4993818;28;20033;-52
2022/06/08 19:34:15;;;;;;;2.35;1.30;;;18.80;60.80;;;15.46;74.67;95071.91;4994120;28;20022;-50
2022/06/08 19:36:50;;;;;;;5.10;1.25;;;18.80;60.90;;;15.41;74.27;95070.13;4993794;28;20525;-53
2022/06/08 19:39:17;;;;;;;4.97;1.60;;;18.80;61.00;;;15.42;74.60;95071.72;4976927;28;20030;-51
2022/06/08 19:41:48;;;;;;;2.35;1.38;;;18.80;61.00;;;15.36;74.74;95081.00;4993602;28;20026;-48
2022/06/08 19:44:26;;;;;;;4.45;1.63;;;18.80;61.20;;;15.38;74.74;95080.69;4996347;28;20461;-50
2022/06/08 19:46:53;;;;;;;4.78;1.48;;;18.80;61.30;;;15.38;74.58;95084.16;4993656;28;20030;-49
2022/06/08 19:49:18;;;;;;;3.03;1.50;;;18.80;61.20;;;15.39;74.46;95082.28;4992689;28;20512;-50
2022/06/08 19:51:44;;;;;;;3.40;1.60;;;18.80;61.20;;;15.42;74.52;95087.84;4992137;28;20034;-49
2022/06/08 19:54:12;;;;;;;5.93;1.85;;;18.80;61.20;;;15.41;74.63;95086.22;4976204;28;20037;-52
2022/06/08 19:56:39;;;;;;;4.80;1.50;;;18.80;61.20;;;15.36;74.24;95081.00;4993449;28;20026;-50
2022/06/08 19:59:14;;;;;;;3.10;1.65;;;18.80;61.20;;;15.39;74.34;95088.44;4999950;28;20500;-49
2022/06/08 20:01:42;;;;;;;3.10;1.60;;;18.80;61.10;;;15.40;74.60;95089.22;4993548;28;20038;-48
2022/06/08 20:04:09;;;;;;;2.45;1.70;;;18.80;61.20;;;15.41;74.91;95096.97;4976114;28;20371;-48
2022/06/08 20:06:35;;;;;;;3.03;1.80;;;18.80;61.30;;;15.41;74.90;95091.59;4993426;28;20034;-51
2022/06/08 20:09:01;;;;;;;4.80;1.20;;;18.80;61.30;;;15.39;74.24;95099.19;4991871;28;20033;-48
2022/06/08 20:11:30;;;;;;;4.25;1.30;;;18.80;61.20;;;15.40;74.72;95100.75;5007608;28;20050;-49
2022/06/08 20:13:55;;;;;;;2.33;1.33;;;18.80;61.40;;;15.40;74.50;95108.03;5032329;28;20049;-50
2022/06/08 20:16:22;;;;;;;2.80;1.20;;;18.80;61.20;;;15.39;75.07;95104.53;5032911;28;20385;-50
2022/06/08 20:18:47;;;;;;;2.65;1.52;;;18.80;61.30;;;15.39;75.44;95106.44;5028778;28;20033;-48
2022/06/08 20:21:16;;;;;;;2.50;1.25;;;18.80;61.40;;;15.35;75.45;95097.41;4995313;28;20121;-48
2022/06/08 20:23:42;;;;;;;5.82;1.55;;;18.80;61.50;;;15.33;75.21;95103.09;4995196;28;20465;-50
2022/06/08 20:26:13;;;;;;;3.83;1.27;;;18.80;61.40;;;15.31;74.98;95107.97;4995310;28;20030;-52
2022/06/08 20:28:41;;;;;;;3.47;1.50;;;18.80;61.50;;;15.28;75.25;95103.19;5021096;28;20072;-53
2022/06/08 20:31:08;;;;;;;3.92;1.73;;;18.70;61.50;;;15.22;75.27;95097.16;5006383;28;20025;-49
2022/06/08 20:33:37;;;;;;;3.50;1.30;;;18.70;61.40;;;15.16;75.57;95100.28;5031962;28;20040;-50
2022/06/08 20:36:13;;;;;;;2.75;1.30;;;18.70;62.40;;;15.09;75.80;95098.03;5032551;28;20407;-47
2022/06/08 20:38:39;;;;;;;3.15;1.35;;;18.60;61.60;;;15.03;76.15;95102.69;5009592;28;20033;-49
2022/06/08 20:41:07;;;;;;;4.28;1.35;;;18.50;61.60;;;14.97;76.12;95101.22;4978546;28;20075;-50
2022/06/08 20:43:41;;;;;;;1.33;1.20;;;18.50;61.70;;;14.95;76.11;95097.28;4995002;28;20482;-52
2022/06/08 20:46:11;;;;;;;5.47;1.50;;;18.50;61.90;;;14.93;76.65;95102.16;5027742;28;20067;-48
2022/06/08 20:48:48;;;;;;;1.67;1.30;;;18.50;62.00;;;14.93;76.58;95104.84;4999046;28;20017;-48
2022/06/08 20:51:17;;;;;;;3.28;1.67;;;18.50;62.20;;;14.92;76.54;95105.94;5015220;28;20117;-48
2022/06/08 20:53:44;;;;;;;2.40;1.30;;;18.50;62.30;;;14.95;76.75;95110.69;4998884;28;20120;-49
2022/06/08 20:56:13;;;;;;;2.80;1.23;;;18.50;62.40;;;14.97;76.60;95101.22;5032764;28;20496;-48
2022/06/08 20:58:42;;;;;;;2.25;0.98;;;18.50;62.50;;;14.97;76.50;95098.56;4998920;28;20496;-48
2022/06/08 21:01:17;;;;;;;3.28;1.20;;;18.50;62.40;;;14.97;76.57;95103.91;5032606;28;20112;-48
2022/06/08 21:03:49;;;;;;;2.45;1.73;;;18.50;62.60;;;14.89;76.34;95110.03;5014970;28;20069;-48
2022/06/08 21:06:18;;;;;;;4.50;1.67;;;18.50;62.50;;;14.89;76.48;95117.28;5032710;28;20495;-49
2022/06/08 21:08:44;;;;;;;2.83;1.05;;;18.40;62.40;;;14.87;76.72;95108.72;4998561;28;20440;-47
2022/06/08 21:13:49;;;;;;;2.58;1.27;;;18.40;62.70;;;14.77;77.22;95091.78;4983281;28;20461;-52
2022/06/08 21:16:15;;;;;;;4.50;1.08;;;18.30;62.50;;;14.71;77.63;95081.47;4973244;28;20018;-50
2022/06/08 21:18:41;;;;;;;2.30;1.05;;;18.30;62.60;;;14.65;78.79;95094.19;4973874;28;20434;-53
2022/06/08 21:21:12;;;;;;;1.83;1.30;;;18.30;62.80;;;14.59;78.23;95090.03;4973834;28;20022;-53
2022/06/08 21:23:45;;;;;;;6.22;1.20;;;18.20;63.00;;;14.55;78.16;95095.22;4957011;28;20445;-51
2022/06/08 21:26:14;;;;;;;2.22;0.98;;;18.20;63.20;;;14.55;78.78;95094.41;4971822;28;20117;-53
2022/06/08 21:28:42;;;;;;;1.50;1.30;;;18.10;63.20;;;14.52;79.50;95105.75;4976358;28;20030;-52
2022/06/08 21:31:08;;;;;;;3.67;1.00;;;18.10;63.40;;;14.48;80.09;95096.69;4959613;28;20511;-53
2022/06/08 21:33:37;;;;;;;3.08;1.05;;;18.10;63.50;;;14.41;79.93;95107.78;4975803;28;20039;-49
2022/06/08 21:36:08;;;;;;;1.35;1.00;;;18.00;63.70;;;14.33;79.77;95103.94;4975711;28;20117;-50
2022/06/08 21:38:35;;;;;;;1.63;1.05;;;18.00;63.70;;;14.28;79.72;95108.59;4975709;28;20026;-49
2022/06/08 21:41:01;;;;;;;4.95;1.20;;;17.90;63.70;;;14.21;80.29;95103.66;4992956;28;20030;-52
2022/06/08 21:43:27;;;;;;;2.67;1.17;;;17.90;63.90;;;14.19;80.61;95110.41;4992819;28;20089;-49
2022/06/08 21:45:54;;;;;;;3.25;1.35;;;17.90;64.10;;;14.15;80.95;95106.75;4993028;28;20030;-52
2022/06/08 21:48:20;;;;;;;3.53;1.45;;;17.80;64.10;;;14.10;81.30;95108.44;4992901;28;20469;-51
2022/06/08 21:50:47;;;;;;;4.65;1.10;;;17.80;64.30;;;14.06;81.09;95120.03;4975330;28;20084;-49
2022/06/08 21:53:22;;;;;;;3.28;1.20;;;17.80;64.40;;;13.99;81.61;95123.09;4992667;28;20123;-50
2022/06/08 21:55:51;;;;;;;2.45;1.00;;;17.80;64.70;;;13.87;82.19;95104.84;4959857;28;20022;-53
2022/06/08 21:58:19;;;;;;;14.80;2.15;;;17.70;64.70;;;13.89;82.56;95102.66;4975660;28;20034;-49
2022/06/08 22:01:00;;;;;;;1.50;1.05;;;17.70;64.70;;;13.86;82.62;95103.25;4975712;28;20034;-50
2022/06/08 22:03:36;;;;;;;1.33;1.02;;;17.60;65.10;;;13.79;82.45;95107.44;4975487;28;20114;-49
2022/06/08 22:06:03;;;;;;;3.67;1.75;;;17.50;65.00;;;13.74;82.49;95124.38;4979577;28;20027;-51
2022/06/08 22:08:31;;;;;;;5.43;2.60;;;17.50;65.10;;;13.74;82.25;95126.25;4979010;28;20496;-52
2022/06/08 22:11:03;;;;;;;6.32;1.33;;;17.50;65.40;;;13.65;83.64;95124.25;4996659;28;20109;-50
2022/06/08 22:13:32;;;;;;;3.65;1.00;;;17.40;65.60;;;13.65;83.55;95120.78;4990402;28;20046;-50
2022/06/08 22:16:00;;;;;;;1.80;1.05;;;17.40;65.60;;;13.63;83.65;95125.63;4963158;28;20031;-51
2022/06/08 22:18:26;;;;;;;1.85;1.10;;;17.40;65.90;;;13.60;83.79;95121.66;4979297;28;20023;-50
2022/06/08 22:20:57;;;;;;;3.35;1.00;;;17.30;65.80;;;13.61;83.38;95119.78;4979183;28;20362;-51
2022/06/08 22:23:27;;;;;;;6.63;1.10;;;17.30;65.90;;;13.59;83.60;95119.28;4979273;28;20041;-49
2022/06/08 22:25:54;;;;;;;1.25;0.95;;;17.30;66.10;;;13.52;83.73;95118.88;4978954;28;20019;-50
2022/06/08 22:28:20;;;;;;;1.67;1.10;;;17.30;66.20;;;13.48;83.98;95120.56;4996429;28;20034;-51
2022/06/08 22:30:48;;;;;;;4.90;0.95;;;17.20;66.30;;;13.39;83.17;95112.41;4996246;28;20031;-49
2022/06/08 22:33:14;;;;;;;1.98;0.80;;;17.20;66.40;;;13.45;82.16;95116.59;4979013;28;20034;-50
2022/06/08 22:35:40;;;;;;;2.70;0.80;;;17.20;66.30;;;13.43;81.66;95114.19;4996239;28;20041;-53
2022/06/08 22:38:10;;;;;;;2.28;0.80;;;17.20;66.20;;;13.45;81.78;95113.13;4996241;28;20022;-50
2022/06/08 22:40:41;;;;;;;1.38;0.95;;;17.20;66.30;;;13.45;81.88;95113.91;4979093;28;20034;-51
2022/06/08 22:43:11;;;;;;;5.55;0.95;;;17.10;66.10;;;13.47;81.58;95102.91;4979135;28;20420;-50
2022/06/08 22:45:46;;;;;;;1.02;0.75;;;17.20;66.10;;;13.49;81.53;95108.75;4996138;28;20493;-50
2022/06/08 22:48:17;;;;;;;1.27;0.90;;;17.20;66.20;;;13.50;81.76;95104.97;4995965;28;20468;-49
2022/06/08 22:50:49;;;;;;;7.30;0.95;;;17.10;66.10;;;13.48;83.66;95104.50;4978451;28;20026;-53
2022/06/08 22:53:27;;;;;;;5.47;0.90;;;17.20;66.40;;;13.51;83.29;95106.59;4995762;28;20385;-50
2022/06/08 22:55:54;;;;;;;3.75;0.90;;;17.20;66.60;;;13.53;82.82;95101.72;4979274;28;20238;-53
2022/06/08 22:58:27;;;;;;;1.23;0.85;;;17.20;66.40;;;13.53;82.66;95105.19;4978471;28;20556;-49
2022/06/08 23:00:53;;;;;;;4.07;0.93;;;17.20;66.50;;;13.55;82.44;95096.88;4996218;28;20508;-54
2022/06/08 23:03:24;;;;;;;2.70;1.20;;;17.20;66.30;;;13.56;82.61;95093.09;4995621;28;20049;-52
2022/06/08 23:05:54;;;;;;;1.10;0.98;;;17.20;66.40;;;13.57;82.50;95095.50;4995974;28;20022;-53
2022/06/08 23:08:20;;;;;;;1.65;0.88;;;17.20;66.40;;;13.54;82.66;95093.41;4962258;28;20018;-52
2022/06/08 23:11:40;;;;;;;3.22;1.00;;;17.20;66.40;;;13.57;82.85;95092.00;4962290;28;20046;-52
